createdAt,value
2023-05-03T00:00:42.995Z,10.27
2023-05-03T00:03:10.755Z,10.37
2023-05-03T00:05:38.274Z,10.37
2023-05-03T00:08:05.631Z,10.40
2023-05-03T00:10:33.112Z,10.34
2023-05-03T00:13:00.257Z,10.38
2023-05-03T00:15:27.517Z,10.21
2023-05-03T00:17:55.669Z,10.24
2023-05-03T00:20:23.309Z,10.13
2023-05-03T00:22:50.552Z,10.22
2023-05-03T00:25:19.819Z,10.25
2023-05-03T00:27:47.033Z,10.29
2023-05-03T00:30:14.350Z,10.32
2023-05-03T00:32:42.437Z,10.23
2023-05-03T00:35:09.713Z,10.38
2023-05-03T00:37:36.976Z,10.43
2023-05-03T00:40:05.652Z,10.21
2023-05-03T00:42:34.186Z,10.10
2023-05-03T00:45:01.559Z,10.11
2023-05-03T00:47:29.090Z,10.08
2023-05-03T00:49:56.650Z,10.01
2023-05-03T00:52:23.940Z,9.89
2023-05-03T00:54:52.207Z,9.74
2023-05-03T00:57:20.160Z,9.82
2023-05-03T00:59:47.492Z,9.88
2023-05-03T01:02:14.895Z,9.83
2023-05-03T01:04:43.444Z,9.72
2023-05-03T01:07:16.957Z,9.68
2023-05-03T01:10:00.340Z,9.82
2023-05-03T01:12:39.834Z,9.81
2023-05-03T01:15:26.093Z,9.76
2023-05-03T01:17:58.266Z,9.75
2023-05-03T01:20:27.152Z,9.85
2023-05-03T01:23:13.741Z,9.78
2023-05-03T01:25:41.865Z,9.89
2023-05-03T01:28:09.321Z,9.81
2023-05-03T01:30:37.149Z,9.59
2023-05-03T01:33:07.963Z,9.67
2023-05-03T01:35:44.146Z,9.45
2023-05-03T01:38:12.380Z,9.48
2023-05-03T01:40:45.819Z,9.47
2023-05-03T01:43:17.276Z,9.46
2023-05-03T01:45:48.073Z,9.34
2023-05-03T01:48:16.708Z,9.35
2023-05-03T01:50:44.679Z,9.41
2023-05-03T01:53:12.385Z,9.51
2023-05-03T01:55:40.119Z,9.47
2023-05-03T01:58:07.381Z,9.60
2023-05-03T02:00:34.845Z,9.55
2023-05-03T02:03:02.422Z,9.57
2023-05-03T02:05:29.672Z,9.41
2023-05-03T02:07:56.891Z,9.40
2023-05-03T02:10:24.428Z,9.31
2023-05-03T02:12:51.612Z,9.33
2023-05-03T02:15:20.409Z,9.29
2023-05-03T02:17:49.728Z,9.35
2023-05-03T02:20:17.151Z,9.20
2023-05-03T02:22:44.342Z,9.12
2023-05-03T02:25:11.843Z,9.16
2023-05-03T02:27:38.952Z,9.17
2023-05-03T02:30:07.926Z,9.13
2023-05-03T02:32:37.896Z,9.19
2023-05-03T02:35:05.526Z,9.16
2023-05-03T02:37:32.920Z,9.11
2023-05-03T02:40:02.644Z,9.00
2023-05-03T02:42:29.930Z,9.16
2023-05-03T02:44:57.786Z,9.16
2023-05-03T02:47:25.786Z,9.10
2023-05-03T02:49:52.958Z,9.15
2023-05-03T02:52:20.203Z,9.17
2023-05-03T02:54:49.656Z,9.20
2023-05-03T02:57:17.209Z,9.23
2023-05-03T02:59:44.455Z,9.17
2023-05-03T03:02:12.010Z,9.10
2023-05-03T03:04:39.218Z,9.12
2023-05-03T03:07:06.664Z,9.13
2023-05-03T03:09:34.666Z,9.26
2023-05-03T03:12:05.527Z,9.18
2023-05-03T03:14:32.695Z,9.01
2023-05-03T03:17:01.384Z,9.02
2023-05-03T03:19:28.969Z,9.04
2023-05-03T03:21:56.421Z,9.04
2023-05-03T03:24:25.530Z,8.98
2023-05-03T03:26:54.266Z,8.89
2023-05-03T03:29:24.308Z,8.94
2023-05-03T03:31:52.367Z,8.87
2023-05-03T08:47:05.028Z,11.22
2023-05-03T08:49:38.081Z,11.22
2023-05-03T08:52:06.977Z,11.20
2023-05-03T08:54:34.664Z,11.34
2023-05-03T08:57:01.974Z,11.53
2023-05-03T08:59:29.846Z,11.66
2023-05-03T09:01:57.564Z,11.50
2023-05-03T09:04:34.999Z,11.56
2023-05-03T09:07:14.545Z,12.14
2023-05-03T09:09:42.471Z,12.37
2023-05-03T09:12:11.179Z,12.09
2023-05-03T09:14:46.741Z,12.58
2023-05-03T09:17:16.460Z,13.06
2023-05-03T09:20:02.743Z,12.64
2023-05-03T09:22:34.542Z,13.17
2023-05-03T09:25:01.940Z,13.41
2023-05-03T09:27:29.342Z,14.00
2023-05-03T09:29:57.079Z,14.14
2023-05-03T09:32:25.428Z,14.67
2023-05-03T09:35:08.713Z,14.58
2023-05-03T09:37:38.959Z,14.50
2023-05-03T09:40:11.737Z,14.23
2023-05-03T09:42:43.799Z,14.39
2023-05-03T09:45:11.533Z,14.76
2023-05-03T09:47:52.004Z,15.07
2023-05-03T09:50:19.733Z,14.64
2023-05-03T09:52:47.651Z,14.66
2023-05-03T09:55:17.516Z,15.01
2023-05-03T09:57:47.971Z,14.77
2023-05-03T10:00:17.418Z,15.15
2023-05-03T10:02:45.830Z,14.99
2023-05-03T10:05:14.100Z,15.50
2023-05-03T10:07:43.566Z,15.53
2023-05-03T10:10:12.284Z,15.51
2023-05-03T10:12:42.908Z,15.42
2023-05-03T10:15:13.880Z,14.95
2023-05-03T10:17:48.433Z,15.18
2023-05-03T10:20:32.406Z,15.03
2023-05-03T10:23:06.334Z,14.96
2023-05-03T10:25:36.546Z,15.40
2023-05-03T10:28:09.093Z,14.79
2023-05-03T10:30:40.778Z,14.61
2023-05-03T10:33:14.485Z,14.37
2023-05-03T10:35:44.626Z,14.97
2023-05-03T10:38:21.841Z,15.29
2023-05-03T10:40:49.900Z,15.51
2023-05-03T10:43:37.229Z,15.23
2023-05-03T10:46:06.908Z,15.49
2023-05-03T10:48:35.694Z,15.45
2023-05-03T10:51:29.217Z,15.28
2023-05-03T10:53:57.103Z,14.71
2023-05-03T10:56:24.694Z,14.72
2023-05-03T10:58:56.260Z,14.80
2023-05-03T11:01:25.014Z,14.41
2023-05-03T11:03:56.829Z,14.54
2023-05-03T11:06:33.039Z,14.63
2023-05-03T11:09:01.746Z,14.86
2023-05-03T11:11:30.232Z,14.96
2023-05-03T11:13:58.060Z,15.11
2023-05-03T11:16:26.203Z,15.13
2023-05-03T11:18:54.256Z,14.79
2023-05-03T11:21:21.598Z,14.84
2023-05-03T11:23:49.107Z,14.57
2023-05-03T11:26:17.062Z,14.51
2023-05-03T11:28:45.435Z,14.28
2023-05-03T11:31:13.920Z,14.03
2023-05-03T11:33:41.902Z,14.00
2023-05-03T11:36:09.993Z,14.06
2023-05-03T11:38:39.759Z,14.00
2023-05-03T11:41:17.824Z,14.08
2023-05-03T11:44:00.499Z,14.02
2023-05-03T11:46:39.439Z,13.82
2023-05-03T11:49:07.160Z,14.20
2023-05-03T11:51:35.040Z,13.93
2023-05-03T11:54:13.555Z,14.00
2023-05-03T11:56:52.855Z,14.38
2023-05-03T11:59:21.017Z,14.97
2023-05-03T12:01:49.632Z,15.25
2023-05-03T12:04:17.461Z,14.52
2023-05-03T12:06:54.084Z,14.92
2023-05-03T12:09:27.313Z,14.82
2023-05-03T12:11:56.037Z,14.37
2023-05-03T12:14:24.826Z,14.09
2023-05-03T12:16:56.627Z,13.50
2023-05-03T12:19:26.896Z,13.53
2023-05-03T12:22:09.415Z,13.54
2023-05-03T12:24:45.193Z,13.43
2023-05-03T12:27:14.247Z,13.21
2023-05-03T12:29:42.269Z,13.07
2023-05-03T12:32:12.135Z,13.04
2023-05-03T12:34:41.439Z,12.87
2023-05-03T12:37:11.678Z,12.57
2023-05-03T12:39:40.532Z,12.68
2023-05-03T12:42:09.368Z,12.68
2023-05-03T12:44:42.137Z,12.56
2023-05-03T12:47:11.395Z,12.61
2023-05-03T12:49:40.320Z,12.46
2023-05-03T12:54:41.478Z,12.67
2023-05-03T12:57:15.514Z,12.62
2023-05-03T12:59:51.376Z,12.61
2023-05-03T13:05:01.803Z,12.55
2023-05-03T13:07:31.695Z,12.11
2023-05-03T13:12:32.930Z,11.89
2023-05-03T13:15:02.903Z,11.67
2023-05-03T13:17:32.700Z,11.40
2023-05-03T13:20:00.220Z,11.43
2023-05-03T13:22:27.909Z,11.34
2023-05-03T13:24:56.301Z,11.32
2023-05-03T13:27:23.773Z,11.12
2023-05-03T13:29:51.611Z,11.07
2023-05-03T13:32:19.568Z,10.91
2023-05-03T13:34:47.241Z,10.79
2023-05-03T13:37:19.407Z,10.80
2023-05-03T13:39:47.368Z,10.77
2023-05-03T13:42:14.937Z,10.75
2023-05-03T13:44:46.658Z,10.74
2023-05-03T13:47:14.871Z,10.93
2023-05-03T13:49:42.285Z,11.03
2023-05-03T13:52:09.689Z,10.79
2023-05-03T13:54:37.618Z,10.99
2023-05-03T13:57:04.987Z,10.94
2023-05-03T13:59:32.280Z,10.75
2023-05-03T14:02:00.540Z,10.78
2023-05-03T14:04:28.530Z,10.76
2023-05-03T14:06:55.979Z,11.01
2023-05-03T14:09:23.764Z,11.04
2023-05-03T14:11:51.707Z,11.07
2023-05-03T14:14:18.966Z,10.80
2023-05-03T14:16:47.245Z,10.80
2023-05-03T14:19:17.633Z,10.67
2023-05-03T14:21:46.914Z,10.76
2023-05-03T14:24:14.565Z,10.48
2023-05-03T14:26:41.970Z,10.61
2023-05-03T14:29:09.376Z,10.57
2023-05-03T14:31:37.115Z,10.53
2023-05-03T14:34:04.487Z,10.68
2023-05-03T14:36:38.799Z,10.27
2023-05-03T14:39:07.070Z,10.16
2023-05-03T14:41:34.620Z,10.16
2023-05-03T14:44:02.291Z,10.24
2023-05-03T14:46:30.002Z,10.25
2023-05-03T14:48:57.483Z,10.33
2023-05-03T14:51:24.847Z,10.18
2023-05-03T14:53:52.776Z,10.27
2023-05-03T14:56:20.178Z,10.23
2023-05-03T14:58:47.472Z,10.25
2023-05-03T15:01:19.899Z,10.27
2023-05-03T15:03:47.316Z,10.18
2023-05-03T15:06:15.402Z,10.18
2023-05-03T15:08:43.249Z,10.26
2023-05-03T15:11:10.798Z,10.22
2023-05-03T15:13:38.494Z,10.22
2023-05-03T15:16:07.004Z,10.25
2023-05-03T15:18:34.388Z,10.18
2023-05-03T15:21:02.084Z,10.18
2023-05-03T15:23:29.502Z,10.22
2023-05-03T15:25:56.929Z,10.22
2023-05-03T15:28:24.596Z,10.23
2023-05-03T15:30:52.008Z,9.98
2023-05-03T15:33:19.825Z,9.96
2023-05-03T15:35:47.558Z,9.93
2023-05-03T15:38:15.056Z,9.81
2023-05-03T15:40:42.396Z,9.87
2023-05-03T15:43:10.078Z,10.05
2023-05-03T15:45:37.411Z,10.09
2023-05-03T15:48:04.988Z,9.99
2023-05-03T15:50:32.756Z,9.93
2023-05-03T15:53:00.532Z,9.89
2023-05-03T15:55:27.852Z,10.19
2023-05-03T15:57:57.262Z,10.38
2023-05-03T16:00:25.715Z,10.29
2023-05-03T16:02:53.443Z,10.33
2023-05-03T16:05:20.918Z,10.39
2023-05-03T16:07:48.382Z,10.45
2023-05-03T16:10:17.133Z,10.63
2023-05-03T16:12:44.537Z,10.73
2023-05-03T16:15:12.552Z,10.75
2023-05-03T16:17:40.380Z,10.63
2023-05-03T16:20:10.997Z,10.47
2023-05-03T16:22:38.685Z,10.22
2023-05-03T16:25:12.872Z,10.03
2023-05-03T16:27:42.927Z,10.26
2023-05-03T16:30:10.959Z,10.06
2023-05-03T16:32:38.460Z,10.09
2023-05-03T16:35:06.291Z,10.14
2023-05-03T16:37:37.253Z,10.13
2023-05-03T16:40:11.724Z,9.90
2023-05-03T16:42:39.689Z,9.99
2023-05-03T16:45:16.061Z,9.91
2023-05-03T16:47:46.349Z,9.84
2023-05-03T16:50:14.074Z,9.74
2023-05-03T16:52:43.555Z,9.96
2023-05-03T16:55:12.713Z,9.93
2023-05-03T16:57:40.465Z,9.76
2023-05-03T17:00:09.811Z,10.00
2023-05-03T17:02:39.180Z,9.81
2023-05-03T17:05:13.054Z,9.93
2023-05-03T17:07:43.102Z,9.97
2023-05-03T17:10:10.722Z,9.89
2023-05-03T17:12:38.200Z,9.78
2023-05-03T17:15:06.631Z,9.84
2023-05-03T17:17:33.915Z,9.88
2023-05-03T17:20:01.427Z,9.92
2023-05-03T17:22:29.372Z,9.99
2023-05-03T17:24:59.774Z,9.91
2023-05-03T17:27:27.173Z,10.07
2023-05-03T17:29:57.626Z,10.12
2023-05-03T17:32:25.089Z,9.86
2023-05-03T17:34:52.440Z,9.86
2023-05-03T17:37:20.476Z,9.80
2023-05-03T17:39:47.761Z,9.99
2023-05-03T17:42:15.040Z,10.00
2023-05-03T17:44:42.860Z,9.89
2023-05-03T17:47:11.306Z,9.67
2023-05-03T17:49:38.668Z,9.73
2023-05-03T17:52:07.252Z,9.86
2023-05-03T17:54:35.418Z,9.75
2023-05-03T17:57:03.945Z,9.52
2023-05-03T17:59:31.754Z,9.57
2023-05-03T18:01:59.162Z,9.66
2023-05-03T18:04:27.299Z,9.71
2023-05-03T18:06:54.852Z,9.93
2023-05-03T18:09:24.000Z,10.18
2023-05-03T18:11:54.792Z,10.20
2023-05-03T18:14:22.266Z,9.89
2023-05-03T18:16:49.744Z,10.10
2023-05-03T18:19:17.434Z,9.81
2023-05-03T18:21:44.819Z,9.80
2023-05-03T18:24:12.128Z,9.75
2023-05-03T18:26:39.842Z,9.84
2023-05-03T18:29:07.991Z,9.67
2023-05-03T18:31:37.275Z,9.70
2023-05-03T18:34:05.374Z,9.56
2023-05-03T18:36:32.837Z,9.45
2023-05-03T18:39:00.196Z,9.54
2023-05-03T18:41:28.091Z,9.52
2023-05-03T18:43:57.416Z,9.54
2023-05-03T18:46:24.999Z,9.32
2023-05-03T18:48:53.627Z,9.42
2023-05-03T18:51:20.964Z,9.64
2023-05-03T18:53:48.313Z,9.59
2023-05-03T18:56:15.989Z,9.71
2023-05-03T18:58:43.340Z,9.56
2023-05-03T19:01:10.792Z,9.83
2023-05-03T19:03:38.559Z,10.01
2023-05-03T19:06:08.684Z,10.04
2023-05-03T19:08:36.013Z,10.09
2023-05-03T19:11:11.256Z,10.26
2023-05-03T19:13:39.323Z,10.27
2023-05-03T19:16:07.473Z,10.14
2023-05-03T19:18:37.507Z,10.13
2023-05-03T19:21:05.145Z,10.22
2023-05-03T19:23:33.367Z,10.40
2023-05-03T19:26:00.947Z,10.37
2023-05-03T19:28:28.382Z,10.10
2023-05-03T19:30:56.212Z,10.00
2023-05-03T19:33:23.673Z,9.98
2023-05-03T19:35:51.560Z,9.84
2023-05-03T19:38:19.470Z,9.78
2023-05-03T19:40:57.677Z,9.40
2023-05-03T19:43:26.136Z,9.58
2023-05-03T19:45:53.579Z,9.38
2023-05-03T19:48:20.957Z,9.07
2023-05-03T19:50:48.645Z,9.11
2023-05-03T19:53:16.306Z,9.14
2023-05-03T19:55:55.067Z,8.96
2023-05-03T19:58:22.615Z,8.72
2023-05-03T20:00:50.072Z,8.87
2023-05-03T20:03:18.341Z,8.81
2023-05-03T20:05:47.244Z,8.85
2023-05-03T20:08:14.786Z,8.65
2023-05-03T20:10:44.710Z,8.71
2023-05-03T20:13:13.746Z,8.71
2023-05-03T20:15:42.435Z,9.00
2023-05-03T20:18:10.122Z,8.89
2023-05-03T20:20:37.668Z,8.84
2023-05-03T20:23:05.109Z,9.15
2023-05-03T20:25:32.775Z,9.30
2023-05-03T20:28:00.485Z,9.41
2023-05-03T20:30:29.348Z,9.75
2023-05-03T20:32:56.980Z,9.60
2023-05-03T20:35:24.481Z,9.53
2023-05-03T20:37:51.754Z,9.50
2023-05-03T20:40:19.438Z,9.68
2023-05-03T20:42:46.878Z,9.77
2023-05-03T20:45:14.159Z,10.04
2023-05-03T20:47:41.822Z,9.90
2023-05-03T20:50:09.590Z,9.65
2023-05-03T20:52:36.912Z,9.60
2023-05-03T20:55:04.893Z,9.85
2023-05-03T20:57:32.331Z,9.84
2023-05-03T21:00:00.279Z,9.78
2023-05-03T21:02:28.050Z,9.70
2023-05-03T21:04:55.443Z,9.76
2023-05-03T21:07:22.902Z,9.85
2023-05-03T21:09:50.632Z,9.84
2023-05-03T21:12:17.908Z,9.74
2023-05-03T21:14:45.339Z,9.89
2023-05-03T21:17:13.069Z,9.87
2023-05-03T21:19:40.524Z,9.60
2023-05-03T21:22:11.894Z,9.34
2023-05-03T21:24:39.454Z,9.31
2023-05-03T21:27:06.772Z,9.30
2023-05-03T21:29:34.070Z,9.15
2023-05-03T21:32:01.816Z,9.06
2023-05-03T21:34:29.130Z,9.18
2023-05-03T21:36:56.551Z,9.19
2023-05-03T21:39:24.305Z,9.29
2023-05-03T21:41:51.583Z,9.39
2023-05-03T21:44:18.835Z,9.42
2023-05-03T21:46:46.738Z,9.25
2023-05-03T21:49:15.441Z,9.34
2023-05-03T21:51:42.732Z,9.23
2023-05-03T21:54:10.382Z,9.32
2023-05-03T21:56:37.808Z,9.56
2023-05-03T21:59:05.882Z,9.67
2023-05-03T22:01:33.528Z,9.82
2023-05-03T22:04:01.841Z,9.82
2023-05-03T22:06:31.232Z,9.90
2023-05-03T22:08:58.518Z,9.93
2023-05-03T22:11:26.260Z,10.14
2023-05-03T22:14:06.498Z,10.22
2023-05-03T22:16:38.011Z,10.29
2023-05-03T22:19:05.634Z,10.28
2023-05-03T22:21:32.990Z,10.10
2023-05-03T22:24:02.191Z,10.20
2023-05-03T22:26:29.976Z,9.86
2023-05-03T22:28:57.374Z,9.86
2023-05-03T22:31:25.205Z,9.90
2023-05-03T22:33:52.782Z,9.75
2023-05-03T22:36:20.000Z,9.68
2023-05-03T22:38:47.654Z,9.70
2023-05-03T22:41:14.994Z,9.57
2023-05-03T22:43:42.697Z,9.73
2023-05-03T22:46:10.465Z,9.50
2023-05-03T22:48:37.689Z,9.43
2023-05-03T22:51:05.595Z,9.61
2023-05-03T22:53:33.341Z,9.50
2023-05-03T22:56:04.430Z,9.45
2023-05-03T22:58:32.152Z,9.43
2023-05-03T23:00:59.814Z,9.45
2023-05-03T23:03:27.697Z,9.53
2023-05-03T23:05:55.349Z,9.56
2023-05-03T23:08:23.625Z,9.46
2023-05-03T23:10:50.953Z,9.40
2023-05-03T23:13:18.298Z,9.41
2023-05-03T23:15:46.002Z,9.38
2023-05-03T23:18:13.659Z,9.41
2023-05-03T23:20:41.215Z,9.43
2023-05-03T23:23:09.144Z,9.41
2023-05-03T23:25:37.788Z,9.35
2023-05-03T23:28:05.623Z,9.24
2023-05-03T23:30:33.641Z,9.26
2023-05-03T23:33:01.424Z,9.07
2023-05-03T23:35:28.990Z,9.16
2023-05-03T23:37:56.631Z,9.16
2023-05-03T23:40:24.197Z,9.15
2023-05-03T23:42:51.551Z,9.25
2023-05-03T23:45:19.197Z,9.35
2023-05-03T23:47:46.592Z,9.52
2023-05-03T23:50:14.157Z,9.74
2023-05-03T23:52:42.248Z,9.90
2023-05-03T23:55:10.508Z,9.99
2023-05-03T23:57:38.101Z,10.06
